sensor_id;sensor_type;location;lat;lon;timestamp;temperature;humidity
30037;DHT22;36325;51.512;-0.382;2023-06-10T00:02:23;17.30;99.90
30037;DHT22;36325;51.512;-0.382;2023-06-10T00:04:51;17.30;99.90
30037;DHT22;36325;51.512;-0.382;2023-06-10T00:07:19;17.20;99.90
30037;DHT22;36325;51.512;-0.382;2023-06-10T00:09:46;17.20;99.90
30037;DHT22;36325;51.512;-0.382;2023-06-10T00:12:14;17.20;99.90
30037;DHT22;36325;51.512;-0.382;2023-06-10T00:14:41;17.20;99.90
30037;DHT22;36325;51.512;-0.382;2023-06-10T00:17:09;17.10;99.90
30037;DHT22;36325;51.512;-0.382;2023-06-10T00:19:37;17.10;99.90
30037;DHT22;36325;51.512;-0.382;2023-06-10T00:22:09;17.10;99.90
30037;DHT22;36325;51.512;-0.382;2023-06-10T00:24:39;17.10;99.90
30037;DHT22;36325;51.512;-0.382;2023-06-10T00:27:06;17.10;99.90
30037;DHT22;36325;51.512;-0.382;2023-06-10T00:29:34;17.00;99.90
30037;DHT22;36325;51.512;-0.382;2023-06-10T00:32:02;17.00;99.90
30037;DHT22;36325;51.512;-0.382;2023-06-10T00:34:29;16.90;99.90
30037;DHT22;36325;51.512;-0.382;2023-06-10T00:36:57;16.90;99.90
30037;DHT22;36325;51.512;-0.382;2023-06-10T00:39:25;16.90;99.90
30037;DHT22;36325;51.512;-0.382;2023-06-10T00:44:19;16.80;99.90
30037;DHT22;36325;51.512;-0.382;2023-06-10T00:46:47;16.80;99.90
30037;DHT22;36325;51.512;-0.382;2023-06-10T00:49:16;16.70;99.90
30037;DHT22;36325;51.512;-0.382;2023-06-10T00:51:44;16.70;99.90
30037;DHT22;36325;51.512;-0.382;2023-06-10T00:54:14;16.70;99.90
30037;DHT22;36325;51.512;-0.382;2023-06-10T00:56:42;16.60;99.90
30037;DHT22;36325;51.512;-0.382;2023-06-10T01:01:38;16.50;99.90
30037;DHT22;36325;51.512;-0.382;2023-06-10T01:04:06;16.50;99.90
30037;DHT22;36325;51.512;-0.382;2023-06-10T01:12:24;16.30;99.90
30037;DHT22;36325;51.512;-0.382;2023-06-10T01:14:54;16.30;99.90
30037;DHT22;36325;51.512;-0.382;2023-06-10T01:17:23;16.30;99.90
30037;DHT22;36325;51.512;-0.382;2023-06-10T01:19:56;16.30;99.90
30037;DHT22;36325;51.512;-0.382;2023-06-10T01:27:21;16.20;99.90
30037;DHT22;36325;51.512;-0.382;2023-06-10T01:29:56;16.10;99.90
30037;DHT22;36325;51.512;-0.382;2023-06-10T01:32:34;16.10;99.90
30037;DHT22;36325;51.512;-0.382;2023-06-10T01:35:05;16.00;99.90
30037;DHT22;36325;51.512;-0.382;2023-06-10T01:37:38;16.00;99.90
30037;DHT22;36325;51.512;-0.382;2023-06-10T01:40:07;16.00;99.90
30037;DHT22;36325;51.512;-0.382;2023-06-10T01:42:35;15.90;99.90
30037;DHT22;36325;51.512;-0.382;2023-06-10T01:45:03;15.80;99.90
30037;DHT22;36325;51.512;-0.382;2023-06-10T01:47:31;15.80;99.90
30037;DHT22;36325;51.512;-0.382;2023-06-10T01:49:59;15.80;99.90
30037;DHT22;36325;51.512;-0.382;2023-06-10T01:52:27;15.70;99.90
30037;DHT22;36325;51.512;-0.382;2023-06-10T01:54:55;15.70;99.90
30037;DHT22;36325;51.512;-0.382;2023-06-10T01:57:22;15.70;99.90
30037;DHT22;36325;51.512;-0.382;2023-06-10T02:02:17;15.60;99.90
30037;DHT22;36325;51.512;-0.382;2023-06-10T02:09:41;15.50;99.90
30037;DHT22;36325;51.512;-0.382;2023-06-10T02:12:09;15.40;99.90
30037;DHT22;36325;51.512;-0.382;2023-06-10T02:14:37;15.40;99.90
30037;DHT22;36325;51.512;-0.382;2023-06-10T02:17:04;14.30;99.90
30037;DHT22;36325;51.512;-0.382;2023-06-10T02:19:31;15.40;99.90
30037;DHT22;36325;51.512;-0.382;2023-06-10T02:21:59;15.40;99.90
30037;DHT22;36325;51.512;-0.382;2023-06-10T02:24:27;15.30;99.90
30037;DHT22;36325;51.512;-0.382;2023-06-10T02:26:55;15.30;99.90
30037;DHT22;36325;51.512;-0.382;2023-06-10T02:29:23;15.20;99.90
30037;DHT22;36325;51.512;-0.382;2023-06-10T02:32:02;15.20;99.90
30037;DHT22;36325;51.512;-0.382;2023-06-10T02:34:30;15.20;99.90
30037;DHT22;36325;51.512;-0.382;2023-06-10T02:39:28;15.10;99.90
30037;DHT22;36325;51.512;-0.382;2023-06-10T02:44:24;15.10;99.90
30037;DHT22;36325;51.512;-0.382;2023-06-10T02:46:52;15.10;99.90
30037;DHT22;36325;51.512;-0.382;2023-06-10T02:51:47;15.10;99.90
30037;DHT22;36325;51.512;-0.382;2023-06-10T02:54:14;15.00;99.90
30037;DHT22;36325;51.512;-0.382;2023-06-10T02:56:44;15.00;99.90
30037;DHT22;36325;51.512;-0.382;2023-06-10T02:59:18;15.00;99.90
30037;DHT22;36325;51.512;-0.382;2023-06-10T03:01:46;15.00;99.90
30037;DHT22;36325;51.512;-0.382;2023-06-10T03:04:14;14.90;99.90
30037;DHT22;36325;51.512;-0.382;2023-06-10T03:06:50;14.90;99.90
30037;DHT22;36325;51.512;-0.382;2023-06-10T03:09:23;14.90;99.90
30037;DHT22;36325;51.512;-0.382;2023-06-10T03:11:54;14.90;99.90
30037;DHT22;36325;51.512;-0.382;2023-06-10T03:14:23;14.90;99.90
30037;DHT22;36325;51.512;-0.382;2023-06-10T03:22:13;14.80;99.90
30037;DHT22;36325;51.512;-0.382;2023-06-10T03:25:05;14.80;99.90
30037;DHT22;36325;51.512;-0.382;2023-06-10T03:27:34;14.80;99.90
30037;DHT22;36325;51.512;-0.382;2023-06-10T03:30:07;14.80;99.90
30037;DHT22;36325;51.512;-0.382;2023-06-10T03:32:38;14.70;99.90
30037;DHT22;36325;51.512;-0.382;2023-06-10T03:35:07;14.80;99.90
30037;DHT22;36325;51.512;-0.382;2023-06-10T03:37:36;14.70;99.90
30037;DHT22;36325;51.512;-0.382;2023-06-10T03:40:04;14.70;99.90
30037;DHT22;36325;51.512;-0.382;2023-06-10T03:42:35;14.70;99.90
30037;DHT22;36325;51.512;-0.382;2023-06-10T03:47:34;14.70;99.90
30037;DHT22;36325;51.512;-0.382;2023-06-10T03:50:06;14.70;99.90
30037;DHT22;36325;51.512;-0.382;2023-06-10T03:52:38;14.60;99.90
30037;DHT22;36325;51.512;-0.382;2023-06-10T03:55:06;14.60;99.90
30037;DHT22;36325;51.512;-0.382;2023-06-10T03:57:34;14.60;99.90
30037;DHT22;36325;51.512;-0.382;2023-06-10T04:00:02;14.60;99.90
30037;DHT22;36325;51.512;-0.382;2023-06-10T04:02:40;14.60;99.90
30037;DHT22;36325;51.512;-0.382;2023-06-10T04:07:57;14.60;99.90
30037;DHT22;36325;51.512;-0.382;2023-06-10T04:10:24;14.60;99.90
30037;DHT22;36325;51.512;-0.382;2023-06-10T04:12:53;14.60;99.90
30037;DHT22;36325;51.512;-0.382;2023-06-10T04:15:23;14.60;99.90
30037;DHT22;36325;51.512;-0.382;2023-06-10T04:20:22;14.60;99.90
30037;DHT22;36325;51.512;-0.382;2023-06-10T04:22:51;14.60;99.90
30037;DHT22;36325;51.512;-0.382;2023-06-10T04:25:19;14.60;99.90
30037;DHT22;36325;51.512;-0.382;2023-06-10T04:27:49;14.60;99.90
30037;DHT22;36325;51.512;-0.382;2023-06-10T04:32:45;14.60;99.90
30037;DHT22;36325;51.512;-0.382;2023-06-10T04:35:15;14.70;99.90
30037;DHT22;36325;51.512;-0.382;2023-06-10T04:40:12;14.70;99.90
30037;DHT22;36325;51.512;-0.382;2023-06-10T04:42:40;14.70;99.90
30037;DHT22;36325;51.512;-0.382;2023-06-10T04:45:08;14.70;99.90
30037;DHT22;36325;51.512;-0.382;2023-06-10T04:47:35;14.80;99.90
30037;DHT22;36325;51.512;-0.382;2023-06-10T04:50:04;14.80;99.90
30037;DHT22;36325;51.512;-0.382;2023-06-10T04:52:32;14.80;99.90
30037;DHT22;36325;51.512;-0.382;2023-06-10T04:55:00;14.90;99.90
30037;DHT22;36325;51.512;-0.382;2023-06-10T04:57:28;14.80;99.90
30037;DHT22;36325;51.512;-0.382;2023-06-10T04:59:55;14.90;99.90
30037;DHT22;36325;51.512;-0.382;2023-06-10T05:02:22;14.90;99.90
30037;DHT22;36325;51.512;-0.382;2023-06-10T05:04:50;14.90;99.90
30037;DHT22;36325;51.512;-0.382;2023-06-10T05:07:17;15.00;99.90
30037;DHT22;36325;51.512;-0.382;2023-06-10T05:12:12;15.00;99.90
30037;DHT22;36325;51.512;-0.382;2023-06-10T05:14:39;15.10;99.90
30037;DHT22;36325;51.512;-0.382;2023-06-10T05:19:34;15.10;99.90
30037;DHT22;36325;51.512;-0.382;2023-06-10T05:22:03;15.20;99.90
30037;DHT22;36325;51.512;-0.382;2023-06-10T05:26:58;15.30;99.90
30037;DHT22;36325;51.512;-0.382;2023-06-10T05:29:26;15.30;99.90
30037;DHT22;36325;51.512;-0.382;2023-06-10T05:31:53;15.40;99.90
30037;DHT22;36325;51.512;-0.382;2023-06-10T05:36:51;15.60;99.90
30037;DHT22;36325;51.512;-0.382;2023-06-10T05:41:46;15.70;99.90
30037;DHT22;36325;51.512;-0.382;2023-06-10T05:44:13;15.70;99.90
30037;DHT22;36325;51.512;-0.382;2023-06-10T05:46:40;15.80;99.90
30037;DHT22;36325;51.512;-0.382;2023-06-10T05:49:08;15.90;99.90
30037;DHT22;36325;51.512;-0.382;2023-06-10T05:51:35;16.00;99.90
30037;DHT22;36325;51.512;-0.382;2023-06-10T05:54:04;15.90;99.90
30037;DHT22;36325;51.512;-0.382;2023-06-10T05:56:32;16.00;99.90
30037;DHT22;36325;51.512;-0.382;2023-06-10T06:01:26;16.10;99.90
30037;DHT22;36325;51.512;-0.382;2023-06-10T06:03:55;16.20;99.90
30037;DHT22;36325;51.512;-0.382;2023-06-10T06:11:18;16.40;99.90
30037;DHT22;36325;51.512;-0.382;2023-06-10T06:13:46;16.50;99.90
30037;DHT22;36325;51.512;-0.382;2023-06-10T06:16:19;16.50;99.90
30037;DHT22;36325;51.512;-0.382;2023-06-10T06:18:47;16.60;99.90
30037;DHT22;36325;51.512;-0.382;2023-06-10T06:23:41;16.80;99.90
30037;DHT22;36325;51.512;-0.382;2023-06-10T06:26:09;16.90;99.90
30037;DHT22;36325;51.512;-0.382;2023-06-10T06:28:37;17.00;99.90
30037;DHT22;36325;51.512;-0.382;2023-06-10T06:31:05;17.10;99.90
30037;DHT22;36325;51.512;-0.382;2023-06-10T06:33:33;17.20;99.90
30037;DHT22;36325;51.512;-0.382;2023-06-10T06:36:01;17.30;99.90
30037;DHT22;36325;51.512;-0.382;2023-06-10T06:38:28;17.40;99.90
30037;DHT22;36325;51.512;-0.382;2023-06-10T06:40:56;17.50;99.90
30037;DHT22;36325;51.512;-0.382;2023-06-10T06:43:23;17.60;99.90
30037;DHT22;36325;51.512;-0.382;2023-06-10T06:46:16;17.70;99.90
30037;DHT22;36325;51.512;-0.382;2023-06-10T06:48:44;17.70;99.90
30037;DHT22;36325;51.512;-0.382;2023-06-10T06:51:11;17.80;99.90
30037;DHT22;36325;51.512;-0.382;2023-06-10T06:53:39;18.00;99.90
30037;DHT22;36325;51.512;-0.382;2023-06-10T06:58:39;18.10;99.90
30037;DHT22;36325;51.512;-0.382;2023-06-10T07:01:07;18.20;99.90
30037;DHT22;36325;51.512;-0.382;2023-06-10T07:03:35;18.40;99.90
30037;DHT22;36325;51.512;-0.382;2023-06-10T07:06:04;18.40;99.90
30037;DHT22;36325;51.512;-0.382;2023-06-10T07:08:31;18.50;99.90
30037;DHT22;36325;51.512;-0.382;2023-06-10T07:13:28;18.70;99.90
30037;DHT22;36325;51.512;-0.382;2023-06-10T07:15:56;18.90;99.90
30037;DHT22;36325;51.512;-0.382;2023-06-10T07:18:25;19.10;99.90
30037;DHT22;36325;51.512;-0.382;2023-06-10T07:23:20;19.20;99.90
30037;DHT22;36325;51.512;-0.382;2023-06-10T07:25:50;19.30;99.90
30037;DHT22;36325;51.512;-0.382;2023-06-10T07:28:19;19.40;99.90
30037;DHT22;36325;51.512;-0.382;2023-06-10T07:30:46;19.50;99.90
30037;DHT22;36325;51.512;-0.382;2023-06-10T07:33:14;19.60;99.90
30037;DHT22;36325;51.512;-0.382;2023-06-10T07:35:42;19.80;99.90
30037;DHT22;36325;51.512;-0.382;2023-06-10T07:38:10;19.90;99.90
30037;DHT22;36325;51.512;-0.382;2023-06-10T07:40:37;21.20;99.90
30037;DHT22;36325;51.512;-0.382;2023-06-10T07:43:05;20.20;99.90
30037;DHT22;36325;51.512;-0.382;2023-06-10T07:45:32;20.40;99.90
30037;DHT22;36325;51.512;-0.382;2023-06-10T07:48:02;20.50;99.90
30037;DHT22;36325;51.512;-0.382;2023-06-10T07:50:29;20.60;99.90
30037;DHT22;36325;51.512;-0.382;2023-06-10T07:52:57;20.70;99.90
30037;DHT22;36325;51.512;-0.382;2023-06-10T07:55:26;20.90;99.90
30037;DHT22;36325;51.512;-0.382;2023-06-10T07:57:57;21.00;99.90
30037;DHT22;36325;51.512;-0.382;2023-06-10T08:00:25;21.20;99.90
30037;DHT22;36325;51.512;-0.382;2023-06-10T08:02:54;21.40;99.90
30037;DHT22;36325;51.512;-0.382;2023-06-10T08:05:21;20.10;99.90
30037;DHT22;36325;51.512;-0.382;2023-06-10T08:07:48;21.90;99.90
30037;DHT22;36325;51.512;-0.382;2023-06-10T08:10:16;22.20;99.90
30037;DHT22;36325;51.512;-0.382;2023-06-10T08:12:43;22.20;99.90
30037;DHT22;36325;51.512;-0.382;2023-06-10T08:15:10;22.50;99.90
30037;DHT22;36325;51.512;-0.382;2023-06-10T08:17:38;23.00;99.90
30037;DHT22;36325;51.512;-0.382;2023-06-10T08:20:06;23.00;99.90
30037;DHT22;36325;51.512;-0.382;2023-06-10T08:22:34;23.30;99.90
30037;DHT22;36325;51.512;-0.382;2023-06-10T08:25:01;22.50;99.90
30037;DHT22;36325;51.512;-0.382;2023-06-10T08:27:28;23.60;99.90
30037;DHT22;36325;51.512;-0.382;2023-06-10T08:29:55;23.80;99.90
30037;DHT22;36325;51.512;-0.382;2023-06-10T08:32:22;24.10;99.90
30037;DHT22;36325;51.512;-0.382;2023-06-10T08:34:50;24.40;99.90
30037;DHT22;36325;51.512;-0.382;2023-06-10T08:37:17;24.60;99.90
30037;DHT22;36325;51.512;-0.382;2023-06-10T08:39:44;24.80;99.90
30037;DHT22;36325;51.512;-0.382;2023-06-10T08:42:33;25.00;99.90
30037;DHT22;36325;51.512;-0.382;2023-06-10T08:45:07;25.30;99.90
30037;DHT22;36325;51.512;-0.382;2023-06-10T08:47:39;25.50;99.90
30037;DHT22;36325;51.512;-0.382;2023-06-10T08:50:10;25.80;99.90
30037;DHT22;36325;51.512;-0.382;2023-06-10T08:52:43;25.90;99.90
30037;DHT22;36325;51.512;-0.382;2023-06-10T08:55:18;26.10;99.90
30037;DHT22;36325;51.512;-0.382;2023-06-10T08:57:49;26.40;99.90
30037;DHT22;36325;51.512;-0.382;2023-06-10T09:00:16;26.40;99.90
30037;DHT22;36325;51.512;-0.382;2023-06-10T09:05:12;26.80;99.90
30037;DHT22;36325;51.512;-0.382;2023-06-10T09:07:40;27.30;99.90
30037;DHT22;36325;51.512;-0.382;2023-06-10T09:15:06;27.60;99.90
30037;DHT22;36325;51.512;-0.382;2023-06-10T09:17:33;26.20;99.90
30037;DHT22;36325;51.512;-0.382;2023-06-10T09:20:03;28.30;99.90
30037;DHT22;36325;51.512;-0.382;2023-06-10T09:22:30;28.20;99.90
30037;DHT22;36325;51.512;-0.382;2023-06-10T09:25:11;28.50;99.90
30037;DHT22;36325;51.512;-0.382;2023-06-10T09:27:50;28.90;99.90
30037;DHT22;36325;51.512;-0.382;2023-06-10T09:30:30;29.10;99.90
30037;DHT22;36325;51.512;-0.382;2023-06-10T09:33:02;29.60;99.90
30037;DHT22;36325;51.512;-0.382;2023-06-10T09:35:31;29.60;99.90
30037;DHT22;36325;51.512;-0.382;2023-06-10T09:37:59;29.70;99.90
30037;DHT22;36325;51.512;-0.382;2023-06-10T09:40:28;29.70;99.90
30037;DHT22;36325;51.512;-0.382;2023-06-10T09:42:57;29.90;99.90
30037;DHT22;36325;51.512;-0.382;2023-06-10T09:45:30;30.10;99.90
30037;DHT22;36325;51.512;-0.382;2023-06-10T09:48:00;30.30;99.90
30037;DHT22;36325;51.512;-0.382;2023-06-10T09:50:28;30.60;99.90
30037;DHT22;36325;51.512;-0.382;2023-06-10T09:52:59;28.90;99.90
30037;DHT22;36325;51.512;-0.382;2023-06-10T09:55:33;30.90;99.90
30037;DHT22;36325;51.512;-0.382;2023-06-10T09:58:00;31.00;99.90
30037;DHT22;36325;51.512;-0.382;2023-06-10T10:00:28;31.10;99.90
30037;DHT22;36325;51.512;-0.382;2023-06-10T10:02:55;31.20;99.90
30037;DHT22;36325;51.512;-0.382;2023-06-10T10:05:23;30.80;99.90
30037;DHT22;36325;51.512;-0.382;2023-06-10T10:07:51;31.60;99.90
30037;DHT22;36325;51.512;-0.382;2023-06-10T10:10:20;31.80;99.90
30037;DHT22;36325;51.512;-0.382;2023-06-10T10:12:54;32.00;99.90
30037;DHT22;36325;51.512;-0.382;2023-06-10T10:15:29;32.10;99.90
30037;DHT22;36325;51.512;-0.382;2023-06-10T10:18:09;32.40;99.90
30037;DHT22;36325;51.512;-0.382;2023-06-10T10:20:45;32.50;99.90
30037;DHT22;36325;51.512;-0.382;2023-06-10T10:23:18;32.50;99.90
30037;DHT22;36325;51.512;-0.382;2023-06-10T10:25:51;32.40;99.90
30037;DHT22;36325;51.512;-0.382;2023-06-10T10:28:23;32.40;99.90
30037;DHT22;36325;51.512;-0.382;2023-06-10T10:30:54;32.70;99.90
30037;DHT22;36325;51.512;-0.382;2023-06-10T10:33:33;32.90;99.90
30037;DHT22;36325;51.512;-0.382;2023-06-10T10:36:03;33.10;99.90
30037;DHT22;36325;51.512;-0.382;2023-06-10T10:38:31;33.30;99.90
30037;DHT22;36325;51.512;-0.382;2023-06-10T10:43:28;33.60;99.90
30037;DHT22;36325;51.512;-0.382;2023-06-10T10:46:01;33.90;99.90
30037;DHT22;36325;51.512;-0.382;2023-06-10T10:48:38;34.00;99.90
30037;DHT22;36325;51.512;-0.382;2023-06-10T10:51:05;34.00;99.90
30037;DHT22;36325;51.512;-0.382;2023-06-10T10:53:33;34.20;99.90
30037;DHT22;36325;51.512;-0.382;2023-06-10T10:56:14;34.10;99.90
30037;DHT22;36325;51.512;-0.382;2023-06-10T10:58:42;34.40;99.90
30037;DHT22;36325;51.512;-0.382;2023-06-10T11:01:14;34.50;99.20
30037;DHT22;36325;51.512;-0.382;2023-06-10T11:03:46;34.50;99.30
30037;DHT22;36325;51.512;-0.382;2023-06-10T11:06:16;34.50;97.30
30037;DHT22;36325;51.512;-0.382;2023-06-10T11:11:25;34.60;97.70
30037;DHT22;36325;51.512;-0.382;2023-06-10T11:16:29;35.50;97.00
30037;DHT22;36325;51.512;-0.382;2023-06-10T11:18:56;35.90;96.40
30037;DHT22;36325;51.512;-0.382;2023-06-10T11:23:57;35.80;93.70
30037;DHT22;36325;51.512;-0.382;2023-06-10T11:33:57;36.40;92.80
30037;DHT22;36325;51.512;-0.382;2023-06-10T11:36:26;36.40;90.90
30037;DHT22;36325;51.512;-0.382;2023-06-10T11:39:01;36.40;91.20
30037;DHT22;36325;51.512;-0.382;2023-06-10T11:41:29;36.90;91.20
30037;DHT22;36325;51.512;-0.382;2023-06-10T11:44:02;37.50;91.10
30037;DHT22;36325;51.512;-0.382;2023-06-10T11:48:59;37.70;88.00
30037;DHT22;36325;51.512;-0.382;2023-06-10T11:51:29;37.30;88.40
30037;DHT22;36325;51.512;-0.382;2023-06-10T11:53:56;37.50;89.00
30037;DHT22;36325;51.512;-0.382;2023-06-10T11:56:26;38.10;83.80
30037;DHT22;36325;51.512;-0.382;2023-06-10T11:59:04;38.10;84.50
30037;DHT22;36325;51.512;-0.382;2023-06-10T12:01:35;38.20;84.50
30037;DHT22;36325;51.512;-0.382;2023-06-10T12:04:14;38.70;82.90
30037;DHT22;36325;51.512;-0.382;2023-06-10T12:09:15;39.70;81.70
30037;DHT22;36325;51.512;-0.382;2023-06-10T12:12:02;40.10;81.30
30037;DHT22;36325;51.512;-0.382;2023-06-10T12:17:43;40.00;78.60
30037;DHT22;36325;51.512;-0.382;2023-06-10T12:20:25;40.10;78.80
30037;DHT22;36325;51.512;-0.382;2023-06-10T12:22:53;40.90;77.80
30037;DHT22;36325;51.512;-0.382;2023-06-10T12:25:28;40.70;77.00
30037;DHT22;36325;51.512;-0.382;2023-06-10T12:27:57;40.50;77.20
30037;DHT22;36325;51.512;-0.382;2023-06-10T12:30:26;40.30;75.90
30037;DHT22;36325;51.512;-0.382;2023-06-10T12:32:54;40.30;76.20
30037;DHT22;36325;51.512;-0.382;2023-06-10T12:35:24;40.80;75.40
30037;DHT22;36325;51.512;-0.382;2023-06-10T12:38:05;40.90;74.90
30037;DHT22;36325;51.512;-0.382;2023-06-10T12:40:38;41.10;73.40
30037;DHT22;36325;51.512;-0.382;2023-06-10T12:43:09;40.90;73.20
30037;DHT22;36325;51.512;-0.382;2023-06-10T12:45:37;40.70;73.80
30037;DHT22;36325;51.512;-0.382;2023-06-10T12:48:19;40.80;73.40
30037;DHT22;36325;51.512;-0.382;2023-06-10T12:50:57;40.70;71.70
30037;DHT22;36325;51.512;-0.382;2023-06-10T12:53:25;39.90;71.60
30037;DHT22;36325;51.512;-0.382;2023-06-10T12:55:55;39.10;71.20
30037;DHT22;36325;51.512;-0.382;2023-06-10T12:58:23;39.50;72.50
30037;DHT22;36325;51.512;-0.382;2023-06-10T13:00:51;39.90;71.10
30037;DHT22;36325;51.512;-0.382;2023-06-10T13:03:23;40.00;72.10
30037;DHT22;36325;51.512;-0.382;2023-06-10T13:05:50;40.70;72.00
30037;DHT22;36325;51.512;-0.382;2023-06-10T13:08:17;41.10;70.40
30037;DHT22;36325;51.512;-0.382;2023-06-10T13:10:44;41.00;70.40
30037;DHT22;36325;51.512;-0.382;2023-06-10T13:18:10;38.80;70.60
30037;DHT22;36325;51.512;-0.382;2023-06-10T13:23:09;35.60;76.00
30037;DHT22;36325;51.512;-0.382;2023-06-10T13:25:36;35.50;76.70
30037;DHT22;36325;51.512;-0.382;2023-06-10T13:28:03;34.80;79.10
30037;DHT22;36325;51.512;-0.382;2023-06-10T13:30:31;35.30;79.70
30037;DHT22;36325;51.512;-0.382;2023-06-10T13:35:26;36.90;76.70
30037;DHT22;36325;51.512;-0.382;2023-06-10T13:37:55;37.30;76.00
30037;DHT22;36325;51.512;-0.382;2023-06-10T13:42:50;36.80;74.60
30037;DHT22;36325;51.512;-0.382;2023-06-10T13:45:20;37.90;74.00
30037;DHT22;36325;51.512;-0.382;2023-06-10T13:47:47;37.80;73.80
30037;DHT22;36325;51.512;-0.382;2023-06-10T13:50:14;36.90;72.00
30037;DHT22;36325;51.512;-0.382;2023-06-10T13:52:42;36.90;72.70
30037;DHT22;36325;51.512;-0.382;2023-06-10T13:55:09;37.80;71.80
30037;DHT22;36325;51.512;-0.382;2023-06-10T13:57:36;38.60;70.30
30037;DHT22;36325;51.512;-0.382;2023-06-10T14:00:04;39.00;69.40
30037;DHT22;36325;51.512;-0.382;2023-06-10T14:05:00;39.60;68.30
30037;DHT22;36325;51.512;-0.382;2023-06-10T14:07:28;40.10;68.60
30037;DHT22;36325;51.512;-0.382;2023-06-10T14:09:55;41.10;67.80
30037;DHT22;36325;51.512;-0.382;2023-06-10T14:12:23;41.30;65.10
30037;DHT22;36325;51.512;-0.382;2023-06-10T14:14:50;40.70;65.00
30037;DHT22;36325;51.512;-0.382;2023-06-10T14:19:45;41.10;63.60
30037;DHT22;36325;51.512;-0.382;2023-06-10T14:22:12;41.20;64.20
30037;DHT22;36325;51.512;-0.382;2023-06-10T14:24:40;41.40;64.20
30037;DHT22;36325;51.512;-0.382;2023-06-10T14:27:07;41.40;63.70
30037;DHT22;36325;51.512;-0.382;2023-06-10T14:29:34;40.30;62.20
30037;DHT22;36325;51.512;-0.382;2023-06-10T14:32:02;41.60;63.30
30037;DHT22;36325;51.512;-0.382;2023-06-10T14:34:32;41.60;62.70
30037;DHT22;36325;51.512;-0.382;2023-06-10T14:37:00;41.30;63.50
30037;DHT22;36325;51.512;-0.382;2023-06-10T14:39:30;41.30;64.10
30037;DHT22;36325;51.512;-0.382;2023-06-10T14:41:57;41.20;64.30
30037;DHT22;36325;51.512;-0.382;2023-06-10T14:49:20;37.50;69.40
30037;DHT22;36325;51.512;-0.382;2023-06-10T14:51:49;36.50;71.80
30037;DHT22;36325;51.512;-0.382;2023-06-10T14:56:45;34.70;73.80
30037;DHT22;36325;51.512;-0.382;2023-06-10T14:59:12;34.20;75.80
30037;DHT22;36325;51.512;-0.382;2023-06-10T15:04:07;31.50;78.30
30037;DHT22;36325;51.512;-0.382;2023-06-10T15:06:34;32.80;80.30
30037;DHT22;36325;51.512;-0.382;2023-06-10T15:09:02;32.20;82.00
30037;DHT22;36325;51.512;-0.382;2023-06-10T15:13:57;32.10;82.50
30037;DHT22;36325;51.512;-0.382;2023-06-10T15:18:52;32.40;83.80
30037;DHT22;36325;51.512;-0.382;2023-06-10T15:21:19;33.50;82.30
30037;DHT22;36325;51.512;-0.382;2023-06-10T15:23:47;33.60;83.00
30037;DHT22;36325;51.512;-0.382;2023-06-10T15:26:43;34.70;81.30
30037;DHT22;36325;51.512;-0.382;2023-06-10T15:29:24;35.70;78.60
30037;DHT22;36325;51.512;-0.382;2023-06-10T15:31:51;36.30;77.40
30037;DHT22;36325;51.512;-0.382;2023-06-10T15:34:19;36.70;76.10
30037;DHT22;36325;51.512;-0.382;2023-06-10T15:36:46;37.20;74.40
30037;DHT22;36325;51.512;-0.382;2023-06-10T15:41:41;37.60;73.80
30037;DHT22;36325;51.512;-0.382;2023-06-10T15:44:08;37.50;73.80
30037;DHT22;36325;51.512;-0.382;2023-06-10T15:46:36;37.70;73.10
30037;DHT22;36325;51.512;-0.382;2023-06-10T15:49:04;38.10;72.40
30037;DHT22;36325;51.512;-0.382;2023-06-10T15:51:31;38.10;73.00
30037;DHT22;36325;51.512;-0.382;2023-06-10T15:56:26;38.10;71.60
30037;DHT22;36325;51.512;-0.382;2023-06-10T15:58:53;38.10;72.30
30037;DHT22;36325;51.512;-0.382;2023-06-10T16:01:20;37.60;71.90
30037;DHT22;36325;51.512;-0.382;2023-06-10T16:03:48;37.60;72.70
30037;DHT22;36325;51.512;-0.382;2023-06-10T16:06:15;37.50;73.60
30037;DHT22;36325;51.512;-0.382;2023-06-10T16:08:43;37.00;74.00
30037;DHT22;36325;51.512;-0.382;2023-06-10T16:11:10;33.90;71.30
30037;DHT22;36325;51.512;-0.382;2023-06-10T16:16:08;36.60;74.40
30037;DHT22;36325;51.512;-0.382;2023-06-10T16:18:35;36.50;75.10
30037;DHT22;36325;51.512;-0.382;2023-06-10T16:21:02;36.30;75.60
30037;DHT22;36325;51.512;-0.382;2023-06-10T16:23:30;36.20;75.90
30037;DHT22;36325;51.512;-0.382;2023-06-10T16:25:57;36.00;75.80
30037;DHT22;36325;51.512;-0.382;2023-06-10T16:28:25;36.00;76.10
30037;DHT22;36325;51.512;-0.382;2023-06-10T16:30:53;36.10;76.00
30037;DHT22;36325;51.512;-0.382;2023-06-10T16:33:21;36.20;75.80
30037;DHT22;36325;51.512;-0.382;2023-06-10T16:35:50;36.10;75.60
30037;DHT22;36325;51.512;-0.382;2023-06-10T16:38:19;35.60;75.80
30037;DHT22;36325;51.512;-0.382;2023-06-10T16:40:47;35.50;76.30
30037;DHT22;36325;51.512;-0.382;2023-06-10T16:43:14;35.50;76.10
30037;DHT22;36325;51.512;-0.382;2023-06-10T16:45:42;35.30;76.60
30037;DHT22;36325;51.512;-0.382;2023-06-10T16:48:10;35.20;76.40
30037;DHT22;36325;51.512;-0.382;2023-06-10T16:50:38;35.20;76.20
30037;DHT22;36325;51.512;-0.382;2023-06-10T16:53:05;34.80;76.80
30037;DHT22;36325;51.512;-0.382;2023-06-10T16:55:32;34.90;77.60
30037;DHT22;36325;51.512;-0.382;2023-06-10T16:58:00;34.90;78.40
30037;DHT22;36325;51.512;-0.382;2023-06-10T17:00:28;34.90;78.60
30037;DHT22;36325;51.512;-0.382;2023-06-10T17:02:55;34.80;79.20
30037;DHT22;36325;51.512;-0.382;2023-06-10T17:05:23;34.70;78.60
30037;DHT22;36325;51.512;-0.382;2023-06-10T17:07:51;34.50;79.00
30037;DHT22;36325;51.512;-0.382;2023-06-10T17:10:19;34.10;79.80
30037;DHT22;36325;51.512;-0.382;2023-06-10T17:12:46;33.70;80.50
30037;DHT22;36325;51.512;-0.382;2023-06-10T17:15:14;33.30;81.10
30037;DHT22;36325;51.512;-0.382;2023-06-10T17:17:42;32.70;82.30
30037;DHT22;36325;51.512;-0.382;2023-06-10T17:20:10;32.50;82.60
30037;DHT22;36325;51.512;-0.382;2023-06-10T17:25:06;32.40;82.70
30037;DHT22;36325;51.512;-0.382;2023-06-10T17:27:34;32.20;84.60
30037;DHT22;36325;51.512;-0.382;2023-06-10T17:30:01;32.10;85.10
30037;DHT22;36325;51.512;-0.382;2023-06-10T17:32:31;32.00;85.60
30037;DHT22;36325;51.512;-0.382;2023-06-10T17:35:03;32.00;85.80
30037;DHT22;36325;51.512;-0.382;2023-06-10T17:37:30;31.90;86.40
30037;DHT22;36325;51.512;-0.382;2023-06-10T17:39:57;31.60;87.40
30037;DHT22;36325;51.512;-0.382;2023-06-10T17:42:24;31.20;87.90
30037;DHT22;36325;51.512;-0.382;2023-06-10T17:44:52;30.80;88.50
30037;DHT22;36325;51.512;-0.382;2023-06-10T17:47:19;31.20;89.40
30037;DHT22;36325;51.512;-0.382;2023-06-10T17:49:47;30.50;89.00
30037;DHT22;36325;51.512;-0.382;2023-06-10T17:52:14;29.90;88.40
30037;DHT22;36325;51.512;-0.382;2023-06-10T17:54:41;30.00;89.10
30037;DHT22;36325;51.512;-0.382;2023-06-10T17:57:09;29.70;89.40
30037;DHT22;36325;51.512;-0.382;2023-06-10T17:59:36;29.50;89.60
30037;DHT22;36325;51.512;-0.382;2023-06-10T18:02:03;29.10;90.20